createdAt,value
2023-06-17T00:00:12.038Z,101371.03
2023-06-17T00:02:50.828Z,101372.41
2023-06-17T00:05:20.063Z,101368.50
2023-06-17T00:07:51.798Z,101369.00
2023-06-17T00:10:21.152Z,101367.50
2023-06-17T00:12:51.064Z,101373.38
2023-06-17T00:15:24.766Z,101372.09
2023-06-17T00:17:54.180Z,101360.75
2023-06-17T00:20:36.161Z,101371.75
2023-06-17T00:23:10.299Z,101373.97
2023-06-17T00:25:47.115Z,101370.56
2023-06-17T00:28:19.269Z,101376.19
2023-06-17T00:30:53.888Z,101369.56
2023-06-17T00:33:37.437Z,101372.19
2023-06-17T00:36:20.322Z,101376.81
2023-06-17T00:39:00.635Z,101372.06
2023-06-17T00:41:29.925Z,101376.47
2023-06-17T00:44:04.409Z,101379.22
2023-06-17T00:46:52.871Z,101377.72
2023-06-17T00:49:32.014Z,101374.28
2023-06-17T00:52:23.723Z,101374.81
2023-06-17T00:54:57.167Z,101375.91
2023-06-17T00:57:28.670Z,101373.31
2023-06-17T00:59:57.862Z,101374.88
2023-06-17T01:02:32.531Z,101373.75
2023-06-17T01:05:08.938Z,101378.44
2023-06-17T01:08:32.661Z,101376.94
2023-06-17T01:11:21.395Z,101376.72
2023-06-17T01:14:06.276Z,101372.34
2023-06-17T01:16:44.057Z,101371.97
2023-06-17T01:19:25.148Z,101371.38
2023-06-17T01:22:12.155Z,101378.53
2023-06-17T01:24:42.447Z,101369.00
2023-06-17T01:27:39.753Z,101364.47
2023-06-17T01:30:15.597Z,101361.63
2023-06-17T01:32:48.488Z,101365.34
2023-06-17T01:36:00.480Z,101368.44
2023-06-17T01:39:07.633Z,101361.13
2023-06-17T01:41:52.362Z,101362.66
2023-06-17T01:44:44.230Z,101358.63
2023-06-17T01:47:37.497Z,101354.63
2023-06-17T01:50:15.158Z,101355.63
2023-06-17T01:52:49.816Z,101353.13
2023-06-17T01:55:37.393Z,101347.19
2023-06-17T01:58:30.310Z,101341.00
2023-06-17T02:01:20.960Z,101335.09
2023-06-17T02:04:14.083Z,101344.78
2023-06-17T02:06:46.008Z,101355.94
2023-06-17T02:09:41.504Z,101361.09
2023-06-17T02:12:21.483Z,101348.34
2023-06-17T02:15:22.525Z,101343.56
2023-06-17T02:17:58.075Z,101332.38
2023-06-17T02:20:58.308Z,101331.63
2023-06-17T02:38:07.323Z,101309.78
2023-06-17T02:40:51.745Z,101305.13
2023-06-17T02:43:24.098Z,101300.34
2023-06-17T02:45:53.445Z,101299.53
2023-06-17T02:48:23.197Z,101300.78
2023-06-17T02:50:58.130Z,101302.97
2023-06-17T02:53:27.185Z,101301.13
2023-06-17T02:55:57.603Z,101293.88
2023-06-17T02:58:36.320Z,101295.53
2023-06-17T03:01:09.984Z,101301.88
2023-06-17T03:03:39.628Z,101304.41
2023-06-17T03:06:11.321Z,101289.31
2023-06-17T03:08:46.767Z,101280.75
2023-06-17T03:11:17.685Z,101276.34
2023-06-17T03:13:51.923Z,101271.50
2023-06-17T03:16:26.819Z,101266.72
2023-06-17T03:18:56.466Z,101277.75
2023-06-17T03:21:25.524Z,101273.84
2023-06-17T03:23:55.680Z,101257.91
2023-06-17T03:26:25.078Z,101256.69
2023-06-17T03:28:56.939Z,101248.97
2023-06-17T03:31:29.300Z,101248.44
2023-06-17T03:33:58.455Z,101246.84
2023-06-17T03:36:31.735Z,101231.28
2023-06-17T03:39:00.904Z,101217.28
2023-06-17T03:41:34.804Z,101210.88
2023-06-17T03:44:04.176Z,101215.38
2023-06-17T03:46:33.435Z,101207.84
2023-06-17T03:49:04.199Z,101202.25
2023-06-17T03:51:34.344Z,101187.06
2023-06-17T03:54:04.480Z,101192.13
2023-06-17T03:56:52.544Z,101204.69
2023-06-17T04:04:07.240Z,101217.59
2023-06-17T04:06:56.842Z,101212.84
2023-06-17T04:09:33.678Z,101196.03
2023-06-17T04:12:23.419Z,101199.59
2023-06-17T04:15:43.698Z,101194.34
2023-06-17T04:18:15.523Z,101202.47
2023-06-17T04:21:08.809Z,101193.22
2023-06-17T04:23:38.495Z,101195.09
2023-06-17T04:26:08.690Z,101187.88
2023-06-17T04:28:37.944Z,101193.44
2023-06-17T04:31:12.863Z,101196.63
2023-06-17T04:33:46.681Z,101195.94
2023-06-17T04:36:18.672Z,101200.81
2023-06-17T04:38:51.812Z,101190.31
2023-06-17T04:41:23.640Z,101213.44
2023-06-17T04:43:53.318Z,101219.84
2023-06-17T04:46:25.913Z,101231.75
2023-06-17T04:48:58.568Z,101238.06
2023-06-17T04:51:27.794Z,101238.06
2023-06-17T04:53:58.651Z,101249.31
2023-06-17T04:56:35.986Z,101246.13
2023-06-17T04:59:10.284Z,101243.75
2023-06-17T05:01:44.788Z,101245.34
2023-06-17T05:04:17.390Z,101253.31
2023-06-17T05:06:47.105Z,101250.91
2023-06-17T05:09:18.752Z,101247.72
2023-06-17T05:11:48.365Z,101243.41
2023-06-17T05:14:22.659Z,101246.31
2023-06-17T05:16:52.449Z,101231.94
2023-06-17T05:19:24.801Z,101227.91
2023-06-17T05:21:53.846Z,101223.13
2023-06-17T05:24:29.580Z,101218.25
2023-06-17T05:27:02.783Z,101203.91
2023-06-17T05:29:32.084Z,101202.31
2023-06-17T05:32:01.506Z,101203.03
2023-06-17T05:34:31.216Z,101198.25
2023-06-17T05:37:03.159Z,101200.25
2023-06-17T05:39:39.763Z,101199.78
2023-06-17T05:42:09.117Z,101201.38
2023-06-17T05:44:41.823Z,101206.19
2023-06-17T05:47:15.343Z,101204.56
2023-06-17T05:49:50.235Z,101211.34
2023-06-17T05:52:21.394Z,101207.81
2023-06-17T05:54:53.522Z,101198.25
2023-06-17T05:57:23.379Z,101202.25
2023-06-17T05:59:57.281Z,101205.88
2023-06-17T06:02:39.103Z,101203.84
2023-06-17T06:05:10.061Z,101203.09
2023-06-17T06:07:46.188Z,101196.72
2023-06-17T06:10:21.126Z,101195.94
2023-06-17T06:12:58.692Z,101197.63
2023-06-17T06:15:27.925Z,101198.81
2023-06-17T06:17:57.047Z,101202.31
2023-06-17T06:20:30.841Z,101204.19
2023-06-17T06:23:00.813Z,101214.16
2023-06-17T06:25:32.977Z,101210.38
2023-06-17T06:28:03.369Z,101209.09
2023-06-17T06:30:46.753Z,101206.22
2023-06-17T06:33:18.795Z,101213.81
2023-06-17T06:35:48.499Z,101217.81
2023-06-17T06:38:20.803Z,101210.56
2023-06-17T06:40:49.987Z,101210.94
2023-06-17T06:43:22.276Z,101206.22
2023-06-17T06:45:59.905Z,101211.00
2023-06-17T06:48:31.960Z,101205.63
2023-06-17T06:51:03.056Z,101208.56
2023-06-17T06:56:20.288Z,101192.31
2023-06-17T06:58:49.909Z,101197.91
2023-06-17T07:01:19.236Z,101196.38
2023-06-17T07:03:51.904Z,101194.47
2023-06-17T07:06:21.973Z,101197.03
2023-06-17T07:08:51.197Z,101193.03
2023-06-17T07:11:23.839Z,101198.16
2023-06-17T07:13:53.185Z,101193.38
2023-06-17T07:16:25.717Z,101198.59
2023-06-17T07:18:56.619Z,101205.78
2023-06-17T07:21:26.528Z,101212.19
2023-06-17T07:23:55.743Z,101213.78
2023-06-17T07:26:27.959Z,101221.75
2023-06-17T07:29:02.730Z,101227.34
2023-06-17T07:31:32.538Z,101224.97
2023-06-17T07:34:02.581Z,101229.34
2023-06-17T07:36:35.563Z,101238.53
2023-06-17T07:39:12.394Z,101230.94
2023-06-17T07:41:50.604Z,101227.75
2023-06-17T07:44:23.039Z,101228.97
2023-06-17T07:46:56.929Z,101233.38
2023-06-17T07:49:30.432Z,101222.59
2023-06-17T07:52:02.640Z,101221.00
2023-06-17T07:54:54.547Z,101227.38
2023-06-17T07:57:29.785Z,101214.63
2023-06-17T08:00:03.031Z,101222.63
2023-06-17T08:02:45.393Z,101210.63
2023-06-17T08:05:16.587Z,101209.84
2023-06-17T08:07:56.594Z,101213.03
2023-06-17T08:10:45.814Z,101212.66
2023-06-17T08:13:26.603Z,101213.06
2023-06-17T08:16:01.438Z,101209.03
2023-06-17T08:18:30.589Z,101207.47
2023-06-17T08:21:02.377Z,101212.22
2023-06-17T08:23:53.341Z,101209.84
2023-06-17T08:26:22.523Z,101210.25
2023-06-17T08:28:58.265Z,101215.41
2023-06-17T08:31:29.789Z,101210.59
2023-06-17T08:33:58.989Z,101206.63
2023-06-17T08:36:30.738Z,101211.44
2023-06-17T08:39:03.292Z,101207.41
2023-06-17T08:41:42.360Z,101199.84
2023-06-17T08:44:26.795Z,101193.06
2023-06-17T08:47:01.204Z,101199.34
2023-06-17T08:49:30.955Z,101195.81
2023-06-17T08:52:04.752Z,101194.53
2023-06-17T08:54:42.168Z,101196.09
2023-06-17T08:57:19.212Z,101198.19
2023-06-17T09:00:25.857Z,101196.16
2023-06-17T09:03:12.076Z,101200.16
2023-06-17T09:05:55.653Z,101200.88
2023-06-17T09:08:33.591Z,101194.50
2023-06-17T09:11:14.928Z,101198.44
2023-06-17T09:13:54.909Z,101191.78
2023-06-17T09:16:41.245Z,101180.31
2023-06-17T09:19:16.502Z,101184.72
2023-06-17T09:21:58.297Z,101192.28
2023-06-17T09:24:37.289Z,101203.06
2023-06-17T09:27:11.854Z,101201.03
2023-06-17T09:29:57.927Z,101214.19
2023-06-17T09:32:41.733Z,101211.38
2023-06-17T09:35:18.076Z,101212.97
2023-06-17T09:38:03.287Z,101211.28
2023-06-17T09:40:37.216Z,101212.09
2023-06-17T09:43:25.904Z,101207.31
2023-06-17T09:46:09.028Z,101210.44
2023-06-17T09:48:44.575Z,101202.53
2023-06-17T09:51:15.271Z,101210.50
2023-06-17T09:53:49.204Z,101204.81
2023-06-17T09:56:57.866Z,101211.19
2023-06-17T09:59:37.856Z,101203.25
2023-06-17T10:02:12.427Z,101208.84
2023-06-17T10:04:46.320Z,101202.47
2023-06-17T10:07:23.878Z,101208.47
2023-06-17T10:09:56.391Z,101213.22
2023-06-17T10:12:33.544Z,101221.50
2023-06-17T10:15:05.844Z,101222.72
2023-06-17T10:17:42.592Z,101216.78
2023-06-17T10:20:17.984Z,101216.38
2023-06-17T10:22:51.526Z,101217.50
2023-06-17T10:25:27.696Z,101215.91
2023-06-17T10:28:12.675Z,101216.31
2023-06-17T10:30:50.091Z,101215.13
2023-06-17T10:33:31.463Z,101206.72
2023-06-17T10:36:25.091Z,101214.28
2023-06-17T10:38:58.650Z,101204.31
2023-06-17T10:41:57.655Z,101210.25
2023-06-17T10:44:36.292Z,101207.88
2023-06-17T10:47:26.942Z,101212.69
2023-06-17T10:49:57.867Z,101205.47
2023-06-17T10:52:32.295Z,101196.72
2023-06-17T10:55:01.669Z,101201.78
2023-06-17T10:57:37.427Z,101199.41
2023-06-17T11:00:12.823Z,101204.63
2023-06-17T11:02:45.529Z,101198.25
2023-06-17T11:05:18.865Z,101187.13
2023-06-17T11:07:48.021Z,101189.06
2023-06-17T11:10:20.354Z,101186.69
2023-06-17T11:12:51.255Z,101187.88
2023-06-17T11:15:20.697Z,101186.69
2023-06-17T11:17:53.068Z,101184.69
2023-06-17T11:20:22.555Z,101183.09
2023-06-17T11:22:57.545Z,101178.72
2023-06-17T11:25:39.697Z,101181.50
2023-06-17T11:28:14.493Z,101182.25
2023-06-17T11:31:03.317Z,101179.84
2023-06-17T11:33:40.079Z,101175.09
2023-06-17T11:36:16.028Z,101171.91
2023-06-17T11:38:52.806Z,101176.28
2023-06-17T11:41:27.818Z,101181.03
2023-06-17T11:44:08.682Z,101175.03
2023-06-17T11:46:50.743Z,101179.84
2023-06-17T11:49:21.413Z,101184.97
2023-06-17T11:51:53.447Z,101188.59
2023-06-17T11:54:27.954Z,101173.44
2023-06-17T11:56:59.708Z,101174.19
2023-06-17T11:59:33.292Z,101171.41
2023-06-17T12:02:07.627Z,101172.19
2023-06-17T12:04:49.238Z,101161.41
2023-06-17T12:07:25.897Z,101163.78
2023-06-17T12:09:59.673Z,101156.47
2023-06-17T12:12:37.593Z,101155.41
2023-06-17T12:15:32.305Z,101160.44
2023-06-17T12:18:17.519Z,101161.13
2023-06-17T12:20:51.617Z,101157.97
2023-06-17T12:23:26.425Z,101147.63
2023-06-17T12:25:59.167Z,101147.16
2023-06-17T12:28:53.478Z,101145.25
2023-06-17T12:31:25.644Z,101140.56
2023-06-17T12:33:58.000Z,101137.69
2023-06-17T12:36:30.711Z,101140.56
2023-06-17T12:39:02.553Z,101142.59
2023-06-17T12:41:33.575Z,101140.56
2023-06-17T12:44:10.956Z,101135.69
2023-06-17T12:49:25.361Z,101137.38
2023-06-17T12:51:57.241Z,101124.34
2023-06-17T12:54:27.141Z,101120.41
2023-06-17T12:57:00.343Z,101115.38
2023-06-17T12:59:52.584Z,101119.84
2023-06-17T13:02:25.056Z,101107.94
2023-06-17T13:05:12.182Z,101105.53
2023-06-17T13:07:49.342Z,101104.66
2023-06-17T13:10:21.635Z,101112.53
2023-06-17T13:12:58.289Z,101115.16
2023-06-17T13:15:32.280Z,101105.06
2023-06-17T13:18:17.848Z,101105.63
2023-06-17T13:20:50.042Z,101112.78
2023-06-17T13:23:21.446Z,101111.34
2023-06-17T13:26:04.974Z,101107.72
2023-06-17T13:29:13.192Z,101111.19
2023-06-17T13:31:49.581Z,101108.69
2023-06-17T13:34:25.560Z,101106.66
2023-06-17T13:37:13.816Z,101115.84
2023-06-17T13:39:54.310Z,101111.28
2023-06-17T13:42:34.406Z,101126.34
2023-06-17T13:45:13.858Z,101120.78
2023-06-17T13:47:49.726Z,101116.91
2023-06-17T13:50:39.478Z,101125.56
2023-06-17T13:53:08.655Z,101134.97
2023-06-17T13:55:45.479Z,101135.38
2023-06-17T13:58:14.630Z,101146.22
2023-06-17T14:00:49.510Z,101147.16
2023-06-17T14:03:24.638Z,101152.50
2023-06-17T14:06:13.341Z,101146.13
2023-06-17T14:08:45.764Z,101141.34
2023-06-17T14:11:15.100Z,101138.22
2023-06-17T14:13:55.647Z,101151.00
2023-06-17T14:16:33.926Z,101145.19
2023-06-17T14:19:03.574Z,101145.97
2023-06-17T14:21:40.631Z,101143.72
2023-06-17T14:24:13.099Z,101138.97
2023-06-17T14:27:14.093Z,101142.47
2023-06-17T14:29:46.651Z,101146.56
2023-06-17T14:32:15.795Z,101153.91
2023-06-17T14:34:47.656Z,101152.16
2023-06-17T14:37:33.215Z,101152.38
2023-06-17T14:40:27.993Z,101157.16
2023-06-17T14:43:02.124Z,101158.66
2023-06-17T14:45:35.703Z,101155.47
2023-06-17T14:48:07.042Z,101151.41
2023-06-17T14:50:40.337Z,101133.66
2023-06-17T14:53:14.500Z,101134.06
2023-06-17T14:57:20.537Z,101133.59
2023-06-17T14:59:53.614Z,101155.84
2023-06-17T15:02:49.985Z,101151.09
2023-06-17T15:05:22.232Z,101156.63
2023-06-17T15:07:53.974Z,101152.13
2023-06-17T15:10:23.846Z,101151.78
2023-06-17T15:12:54.076Z,101153.25
2023-06-17T15:15:24.297Z,101148.31
2023-06-17T15:17:53.575Z,101155.41
2023-06-17T15:20:23.035Z,101161.78
2023-06-17T15:22:54.332Z,101156.94
2023-06-17T15:25:23.901Z,101158.84
2023-06-17T15:27:59.537Z,101168.19
2023-06-17T15:30:28.601Z,101159.28
2023-06-17T15:32:57.638Z,101168.81
2023-06-17T15:35:27.182Z,101168.53
2023-06-17T15:37:56.374Z,101159.81
2023-06-17T15:40:27.101Z,101155.16
2023-06-17T15:42:56.205Z,101166.28
2023-06-17T15:45:25.364Z,101154.25
2023-06-17T15:47:54.500Z,101164.63
2023-06-17T15:50:25.812Z,101161.50
2023-06-17T15:52:54.889Z,101163.84
2023-06-17T15:55:27.555Z,101163.00
2023-06-17T15:57:57.300Z,101156.22
2023-06-17T16:00:29.706Z,101164.22
2023-06-17T16:03:02.574Z,101172.53
2023-06-17T16:05:31.857Z,101169.06
2023-06-17T16:08:03.242Z,101170.84
2023-06-17T16:10:34.577Z,101164.69
2023-06-17T16:13:03.799Z,101173.44
2023-06-17T16:15:39.024Z,101176.69
2023-06-17T16:18:16.670Z,101174.75
2023-06-17T16:20:51.768Z,101170.72
2023-06-17T16:23:57.604Z,101185.47
2023-06-17T16:26:35.703Z,101179.94
2023-06-17T16:29:05.839Z,101187.88
2023-06-17T16:31:34.817Z,101171.13
2023-06-17T16:34:07.086Z,101158.44
2023-06-17T16:36:36.373Z,101171.16
2023-06-17T16:39:08.725Z,101172.72
2023-06-17T16:41:39.077Z,101172.72
2023-06-17T16:44:08.684Z,101174.34
2023-06-17T16:46:40.997Z,101167.25
2023-06-17T16:49:11.044Z,101166.09
2023-06-17T16:51:40.138Z,101169.59
2023-06-17T16:54:09.837Z,101168.88
2023-06-17T16:56:39.823Z,101161.47
2023-06-17T16:59:08.825Z,101169.25
2023-06-17T17:01:43.378Z,101161.75
2023-06-17T17:04:14.916Z,101168.94
2023-06-17T17:06:44.714Z,101169.78
2023-06-17T17:09:24.828Z,101164.16
2023-06-17T17:11:58.372Z,101166.84
2023-06-17T17:14:32.444Z,101167.13
2023-06-17T17:17:10.465Z,101168.84
2023-06-17T17:19:39.719Z,101151.78
2023-06-17T17:22:16.622Z,101153.81
2023-06-17T17:24:51.795Z,101154.66
2023-06-17T17:27:20.960Z,101153.88
2023-06-17T17:35:47.446Z,101152.94
2023-06-17T17:38:32.914Z,101139.63
2023-06-17T17:41:04.513Z,101142.44
2023-06-17T17:43:36.919Z,101136.19
2023-06-17T17:47:30.859Z,101124.78
2023-06-17T17:49:36.281Z,101117.56
2023-06-17T17:52:05.613Z,101119.53
2023-06-17T17:54:36.542Z,101112.44
2023-06-17T17:57:06.399Z,101102.84
2023-06-17T17:59:37.065Z,101105.19
2023-06-17T18:02:11.215Z,101105.16
2023-06-17T18:04:40.265Z,101101.56
2023-06-17T18:07:20.653Z,101096.00
2023-06-17T18:10:04.343Z,101087.44
2023-06-17T18:12:33.772Z,101079.31
2023-06-17T18:15:33.410Z,101072.94
2023-06-17T18:18:27.178Z,101064.91
2023-06-17T18:20:59.149Z,101053.72
2023-06-17T18:23:28.309Z,101052.84
2023-06-17T18:26:00.672Z,101042.41
2023-06-17T18:28:31.950Z,101046.19
2023-06-17T18:31:07.520Z,101054.03
2023-06-17T18:33:40.095Z,101048.34
2023-06-17T18:36:12.125Z,101042.16
2023-06-17T18:38:41.377Z,101042.69
2023-06-17T18:41:13.417Z,101041.41
2023-06-17T18:43:45.548Z,101041.59
2023-06-17T18:46:17.803Z,101048.63
2023-06-17T18:48:49.820Z,101052.25
2023-06-17T18:51:19.299Z,101046.28
2023-06-17T18:53:50.879Z,101051.50
2023-06-17T18:56:22.641Z,101052.28
2023-06-17T18:58:52.009Z,101058.22
2023-06-17T19:01:24.152Z,101056.25
2023-06-17T19:04:06.060Z,101053.78
2023-06-17T19:07:04.883Z,101059.84
2023-06-17T19:10:17.423Z,101060.63
2023-06-17T19:12:52.338Z,101069.38
2023-06-17T19:15:22.640Z,101075.75
2023-06-17T19:17:59.874Z,101061.53
2023-06-17T19:20:30.868Z,101071.81
2023-06-17T19:23:05.096Z,101071.81
2023-06-17T19:25:37.575Z,101068.69
2023-06-17T19:28:11.858Z,101066.28
2023-06-17T19:30:50.346Z,101067.47
2023-06-17T19:33:19.701Z,101069.13
2023-06-17T19:35:51.907Z,101056.81
2023-06-17T19:38:23.004Z,101063.16
2023-06-17T19:40:52.993Z,101058.81
2023-06-17T19:43:25.033Z,101060.00
2023-06-17T19:45:59.406Z,101057.59
2023-06-17T19:48:30.817Z,101061.56
2023-06-17T19:51:02.848Z,101063.94
2023-06-17T19:53:34.405Z,101060.00
2023-06-17T19:56:15.286Z,101048.03
2023-06-17T19:58:54.181Z,101046.50
2023-06-17T20:01:25.972Z,101068.34
2023-06-17T20:04:11.687Z,101065.56
2023-06-17T20:06:42.859Z,101064.38
2023-06-17T20:09:16.356Z,101065.94
2023-06-17T20:11:51.446Z,101069.16
2023-06-17T20:14:21.428Z,101067.97
2023-06-17T20:16:57.426Z,101050.47
2023-06-17T20:19:29.494Z,101046.50
2023-06-17T20:21:58.736Z,101056.06
2023-06-17T20:24:30.067Z,101056.84
2023-06-17T20:27:07.112Z,101057.94
2023-06-17T20:29:51.096Z,101048.38
2023-06-17T20:32:23.949Z,101048.66
2023-06-17T20:35:00.807Z,101039.88
2023-06-17T20:37:52.238Z,101043.88
2023-06-17T20:40:23.942Z,101041.94
2023-06-17T20:43:22.259Z,101035.19
2023-06-17T20:45:53.612Z,101032.00
2023-06-17T20:48:25.589Z,101023.31
2023-06-17T20:50:55.805Z,101033.69
2023-06-17T20:53:35.973Z,101041.69
2023-06-17T20:56:14.133Z,101029.78
2023-06-17T20:58:43.157Z,101036.97
2023-06-17T21:01:13.017Z,101045.34
2023-06-17T21:03:44.612Z,101039.38
2023-06-17T21:06:18.988Z,101040.16
2023-06-17T21:08:48.460Z,101042.97
2023-06-17T21:11:19.745Z,101049.72
2023-06-17T21:13:52.911Z,101049.22
2023-06-17T21:16:25.921Z,101048.09
2023-06-17T21:18:55.184Z,101035.38
2023-06-17T21:21:26.748Z,101033.75
2023-06-17T21:23:59.247Z,101022.56
2023-06-17T21:26:28.969Z,101011.47
2023-06-17T21:28:58.125Z,101017.00
2023-06-17T21:31:27.480Z,101016.22
2023-06-17T21:33:56.669Z,101006.69
2023-06-17T21:36:25.758Z,101004.31
2023-06-17T21:39:02.963Z,100993.19
2023-06-17T21:41:35.197Z,101011.09
2023-06-17T21:44:06.889Z,101018.66
2023-06-17T21:46:38.298Z,101020.28
2023-06-17T21:49:07.390Z,101028.22
2023-06-17T21:51:37.456Z,101025.88
2023-06-17T21:54:10.908Z,101013.91
2023-06-17T21:56:40.299Z,101016.28
2023-06-17T21:59:09.687Z,101015.44
2023-06-17T22:01:38.868Z,101007.03
2023-06-17T22:04:10.818Z,100990.72
2023-06-17T22:06:40.045Z,100994.78
2023-06-17T22:09:09.261Z,100992.41
2023-06-17T22:11:41.235Z,100988.03
2023-06-17T22:14:10.445Z,100980.47
2023-06-17T22:16:45.495Z,100989.22
2023-06-17T22:19:40.850Z,100993.19
2023-06-17T22:22:10.273Z,100997.94
2023-06-17T22:24:42.151Z,100990.78
2023-06-17T22:27:15.454Z,100989.19
2023-06-17T22:29:48.819Z,100991.94
2023-06-17T22:32:20.322Z,100990.00
2023-06-17T22:35:01.770Z,100991.22
2023-06-17T22:37:46.189Z,100978.88
2023-06-17T22:40:15.502Z,100966.91
2023-06-17T22:42:44.451Z,100964.13
2023-06-17T22:45:13.464Z,100977.66
2023-06-17T22:47:42.434Z,100974.50
2023-06-17T22:50:11.903Z,100962.13
2023-06-17T22:52:41.602Z,100950.22
2023-06-17T22:55:21.364Z,100953.41
2023-06-17T22:57:50.627Z,100954.19
2023-06-17T23:00:20.166Z,100943.47
2023-06-17T23:02:49.470Z,100951.00
2023-06-17T23:05:21.615Z,100944.66
2023-06-17T23:07:54.358Z,100946.63
2023-06-17T23:10:23.798Z,100945.44
2023-06-17T23:12:54.643Z,100945.44
2023-06-17T23:15:23.863Z,100939.06
2023-06-17T23:17:59.137Z,100943.84
2023-06-17T23:20:28.975Z,100932.69
2023-06-17T23:23:01.183Z,100940.66
2023-06-17T23:25:33.234Z,100934.66
2023-06-17T23:28:03.676Z,100927.91
2023-06-17T23:30:32.943Z,100936.25
2023-06-17T23:33:04.625Z,100938.13
2023-06-17T23:35:47.438Z,100940.59
2023-06-17T23:38:36.995Z,100930.66
2023-06-17T23:41:10.235Z,100938.97
2023-06-17T23:43:39.998Z,100936.59
2023-06-17T23:46:10.215Z,100940.59
2023-06-17T23:48:39.728Z,100933.44
2023-06-17T23:51:10.548Z,100933.47
2023-06-17T23:53:42.494Z,100927.88
2023-06-17T23:56:14.098Z,100933.44
2023-06-17T23:58:47.801Z,100934.25
